Harrisonburg, Louisiana
Current Conditions -  °F | °C
As of 2:35 PM on Friday 21 Nov 2014 (Local Time) from KHEZ Reporting Station
Overcast Overcast  
Wind Chill: 66°   Ceiling: 8500
Heat Index: 66°   Visibility: 10mi
Dew Point: 46°   Wind: 14mph
Humidity: 49%   Direction: 130°SE
Pressure: 30.22"   Gusts: NA
Location:  31.77°N, 91.82°W
Report Text: KHEZ 212035Z AUTO 13012KT 10SM OVC085 19/08 A3022 RMK AO1
Loading
Personal Weather Stations






























Interactive Weather Map New forecast layout! Learn more

10-Day Weather Forecast

Advertisements
Track Severe Weather on mobile